DXNG

Niamtougou International Airport

Niamtougou, Togo
METAR DXNG 180600Z 08005KT CAVOK 24/03 Q1013 NOSIG
Observed Flight Rules
Feb-18 @ 06:00 UTC (an hour ago) Visual Flight Rules
Wind Visibility Clouds
80° at 5 knots 10,000+ meters
  • Clear skies
Temperatures Readings
Current 24°C / 75°F
Dewpoint 3°C / 37°F
Humidity 25%
Altimeter 29.91" Hg
Pressure 1013 hPa
Elevation 343
METAR DXNG 180600Z 08005KT CAVOK 24/03 Q1013 NOSIG
Observed Flight Rules
Feb-18 @ 06:00 UTC
(an hour ago)
VFR
Wind Visibility
80° at 5 knots 10,000+ meters
Clouds
  • Clear skies
Temperature Dewpoint
24°C / 75°F 3°C / 37°F
Humidity Altimeter Pressure
25% 29.91" Hg 1013 hPa